Time;durP1;ratioP1;P1;durP2;ratioP2;P2;SDS_P1;SDS_P2;PMS_P1;PMS_P2;Temp;Humidity;BMP_temperature;BMP_pressure;BME280_temperature;BME280_humidity;BME280_pressure;Samples;Min_cycle;Max_cycle;Signal;HPM_P1;HPM_P2
2022/03/09 00:01:41;;;;;;;77.70;11.60;;;;;;;;;;5072592;28;20205;-67
2022/03/09 00:04:08;;;;;;;70.07;10.85;;;;;;;;;;5071807;28;20320;-69
2022/03/09 00:06:35;;;;;;;74.28;12.18;;;;;;;;;;5072243;28;20221;-68
2022/03/09 00:09:02;;;;;;;74.15;15.57;;;;;;;;;;5071513;28;20211;-68
2022/03/09 00:11:29;;;;;;;76.80;14.38;;;;;;;;;;5072547;28;20297;-67
2022/03/09 00:13:57;;;;;;;77.25;14.25;;;;;;;;;;5072573;28;20211;-68
2022/03/09 00:16:24;;;;;;;70.65;12.25;;;;;;;;;;5072120;28;20579;-68
2022/03/09 00:18:52;;;;;;;73.43;12.25;;;;;;;;;;5071736;28;20600;-68
2022/03/09 00:21:19;;;;;;;75.75;13.50;;;;;;;;;;5072491;28;20215;-67
2022/03/09 00:23:46;;;;;;;78.70;14.35;;;;;;;;;;5078553;28;20220;-69
2022/03/09 00:26:14;;;;;;;78.03;15.10;;;;;;;;;;5091660;28;20234;-68
2022/03/09 00:28:41;;;;;;;90.05;17.75;;;;;;;;;;5091131;28;20303;-69
2022/03/09 00:31:08;;;;;;;89.07;19.30;;;;;;;;;;5092099;28;20587;-68
2022/03/09 00:33:35;;;;;;;83.75;16.45;;;;;;;;;;5092182;28;20668;-68
2022/03/09 00:36:04;;;;;;;88.97;18.52;;;;;;;;;;5092364;28;20501;-68
2022/03/09 00:38:31;;;;;;;79.95;16.02;;;;;;;;;;5091476;28;20212;-68
2022/03/09 00:41:01;;;;;;;81.78;15.98;;;;;;;;;;5092204;28;20208;-67
2022/03/09 00:43:28;;;;;;;76.55;14.48;;;;;;;;;;5091838;28;20316;-67
2022/03/09 00:45:56;;;;;;;75.22;13.65;;;;;;;;;;5091770;28;20611;-68
2022/03/09 00:48:23;;;;;;;78.75;14.20;;;;;;;;;;5091113;28;20204;-69
2022/03/09 00:50:50;;;;;;;79.50;13.40;;;;;;;;;;5091942;28;20585;-68
2022/03/09 00:53:19;;;;;;;75.18;12.93;;;;;;;;;;5091145;28;20672;-68
2022/03/09 00:55:46;;;;;;;80.20;13.13;;;;;;;;;;5088685;28;20675;-68
2022/03/09 00:58:13;;;;;;;72.75;11.48;;;;;;;;;;5091320;28;20208;-67
2022/03/09 01:00:40;;;;;;;73.32;11.90;;;;;;;;;;5092121;28;20200;-68
2022/03/09 01:03:07;;;;;;;71.63;11.85;;;;;;;;;;5092023;28;20306;-67
2022/03/09 01:05:34;;;;;;;73.30;11.65;;;;;;;;;;5091545;28;20230;-67
2022/03/09 01:08:02;;;;;;;77.18;12.98;;;;;;;;;;5090649;28;20672;-68
2022/03/09 01:10:30;;;;;;;79.00;13.40;;;;;;;;;;5091011;28;20235;-67
2022/03/09 01:12:57;;;;;;;74.60;12.82;;;;;;;;;;5091715;28;20754;-67
2022/03/09 01:15:24;;;;;;;70.20;11.35;;;;;;;;;;5092072;28;20224;-67
2022/03/09 01:17:52;;;;;;;73.47;14.02;;;;;;;;;;5091045;28;20201;-67
2022/03/09 01:20:19;;;;;;;76.75;13.70;;;;;;;;;;5092019;28;20200;-67
2022/03/09 01:22:46;;;;;;;74.32;13.45;;;;;;;;;;5091808;28;20204;-68
2022/03/09 01:25:13;;;;;;;73.60;12.60;;;;;;;;;;5084311;28;20264;-67
2022/03/09 01:27:42;;;;;;;76.03;13.65;;;;;;;;;;5070025;28;20200;-68
2022/03/09 01:30:09;;;;;;;77.38;13.00;;;;;;;;;;5071332;28;20200;-67
2022/03/09 01:32:36;;;;;;;73.75;13.15;;;;;;;;;;5071484;28;20209;-68
2022/03/09 01:35:04;;;;;;;73.05;12.60;;;;;;;;;;5071367;28;20610;-67
2022/03/09 01:37:31;;;;;;;71.68;11.65;;;;;;;;;;5071578;28;20193;-68
2022/03/09 01:39:58;;;;;;;71.38;11.10;;;;;;;;;;5075377;28;20711;-68
2022/03/09 01:42:25;;;;;;;73.13;12.10;;;;;;;;;;5075407;28;20201;-67
2022/03/09 01:44:54;;;;;;;72.18;12.30;;;;;;;;;;5074918;28;20738;-68
2022/03/09 01:47:21;;;;;;;71.82;11.52;;;;;;;;;;5073810;28;20300;-67
2022/03/09 01:49:48;;;;;;;70.65;10.00;;;;;;;;;;5074873;28;20304;-68
2022/03/09 01:52:16;;;;;;;76.47;10.90;;;;;;;;;;5074645;28;20212;-67
2022/03/09 01:54:43;;;;;;;70.10;10.70;;;;;;;;;;5075502;28;20659;-67
2022/03/09 01:57:11;;;;;;;70.13;10.75;;;;;;;;;;5070539;28;20228;-67
2022/03/09 01:59:38;;;;;;;74.43;13.65;;;;;;;;;;5075092;28;20217;-68
2022/03/09 02:02:06;;;;;;;70.43;10.80;;;;;;;;;;5075020;28;20205;-69
2022/03/09 02:04:33;;;;;;;72.70;11.40;;;;;;;;;;5074645;28;20316;-67
2022/03/09 02:07:01;;;;;;;69.55;11.98;;;;;;;;;;5074227;28;20224;-68
2022/03/09 02:09:44;;;;;;;72.90;12.40;;;;;;;;;;5074417;28;20207;-68
2022/03/09 02:12:12;;;;;;;74.15;11.55;;;;;;;;;;5074482;28;20246;-69
2022/03/09 02:14:40;;;;;;;68.97;10.32;;;;;;;;;;5074739;28;20208;-69
2022/03/09 02:17:10;;;;;;;75.15;11.05;;;;;;;;;;5074033;28;20315;-69
2022/03/09 02:19:38;;;;;;;71.05;10.15;;;;;;;;;;5074540;28;20216;-68
2022/03/09 02:22:07;;;;;;;74.65;11.73;;;;;;;;;;5074693;28;20201;-68
2022/03/09 02:24:36;;;;;;;70.25;10.77;;;;;;;;;;5074262;28;20231;-68
2022/03/09 02:27:03;;;;;;;83.47;11.18;;;;;;;;;;5072598;28;20282;-69
2022/03/09 02:29:30;;;;;;;70.35;10.77;;;;;;;;;;5072799;28;20777;-68
2022/03/09 02:31:59;;;;;;;71.63;10.82;;;;;;;;;;5074583;28;20296;-68
2022/03/09 02:34:26;;;;;;;69.15;10.48;;;;;;;;;;5074409;28;20208;-68
2022/03/09 02:36:54;;;;;;;70.68;9.90;;;;;;;;;;5074428;28;20292;-68
2022/03/09 02:39:21;;;;;;;73.40;10.35;;;;;;;;;;5073807;28;20212;-68
2022/03/09 02:41:49;;;;;;;74.25;10.45;;;;;;;;;;5074258;28;20678;-70
2022/03/09 02:44:16;;;;;;;71.25;10.82;;;;;;;;;;5073932;28;20227;-68
2022/03/09 02:46:44;;;;;;;70.80;11.18;;;;;;;;;;5071009;28;20228;-68
2022/03/09 02:49:11;;;;;;;70.20;11.30;;;;;;;;;;5073436;28;20557;-68
2022/03/09 02:51:38;;;;;;;68.55;10.77;;;;;;;;;;5075282;28;20205;-68
2022/03/09 02:54:05;;;;;;;71.38;10.73;;;;;;;;;;5084792;28;20205;-69
2022/03/09 02:56:32;;;;;;;73.07;11.13;;;;;;;;;;5085239;28;20323;-68
2022/03/09 02:59:01;;;;;;;81.95;10.30;;;;;;;;;;5085290;28;20205;-68
2022/03/09 03:01:28;;;;;;;67.97;10.45;;;;;;;;;;5085556;28;20229;-68
2022/03/09 03:03:55;;;;;;;73.38;9.68;;;;;;;;;;5084672;28;20227;-68
2022/03/09 03:06:23;;;;;;;70.53;11.45;;;;;;;;;;5084666;28;20229;-68
2022/03/09 03:08:51;;;;;;;73.10;10.43;;;;;;;;;;5083705;28;20208;-68
2022/03/09 03:11:18;;;;;;;68.88;9.27;;;;;;;;;;5083822;28;20648;-68
2022/03/09 03:13:45;;;;;;;69.22;9.55;;;;;;;;;;5084619;28;20659;-68
2022/03/09 03:16:14;;;;;;;70.40;10.48;;;;;;;;;;5084673;28;20224;-68
2022/03/09 03:18:41;;;;;;;71.97;10.70;;;;;;;;;;5083295;28;20304;-70
2022/03/09 03:21:08;;;;;;;74.07;9.75;;;;;;;;;;5084078;28;20233;-68
2022/03/09 03:23:36;;;;;;;68.55;10.25;;;;;;;;;;5084297;28;20268;-69
2022/03/09 03:26:04;;;;;;;75.63;11.80;;;;;;;;;;5084204;28;20289;-68
2022/03/09 03:28:31;;;;;;;76.80;11.93;;;;;;;;;;5083953;28;20299;-68
2022/03/09 03:30:58;;;;;;;68.15;10.20;;;;;;;;;;5083322;28;20255;-68
2022/03/09 03:33:27;;;;;;;75.60;12.30;;;;;;;;;;5084154;28;20205;-69
2022/03/09 03:35:54;;;;;;;76.28;12.38;;;;;;;;;;5077785;28;20315;-68
2022/03/09 03:38:21;;;;;;;69.28;10.98;;;;;;;;;;5073925;28;20204;-68
2022/03/09 03:40:48;;;;;;;75.15;10.23;;;;;;;;;;5073699;28;20211;-68
2022/03/09 03:43:16;;;;;;;71.20;9.93;;;;;;;;;;5073913;28;20213;-69
2022/03/09 03:45:43;;;;;;;77.18;10.85;;;;;;;;;;5073084;28;20225;-68
2022/03/09 03:48:10;;;;;;;67.75;9.55;;;;;;;;;;5072248;28;20681;-68
2022/03/09 03:50:38;;;;;;;72.68;10.73;;;;;;;;;;5073630;28;20200;-68
2022/03/09 03:53:05;;;;;;;70.47;10.98;;;;;;;;;;5072991;28;20236;-68
2022/03/09 03:55:33;;;;;;;68.80;9.80;;;;;;;;;;5073084;28;20217;-68
2022/03/09 03:58:00;;;;;;;68.97;10.18;;;;;;;;;;5072238;28;20200;-68
2022/03/09 04:00:27;;;;;;;70.85;10.15;;;;;;;;;;5072381;28;20201;-68
2022/03/09 04:02:54;;;;;;;70.22;11.25;;;;;;;;;;5072831;28;20201;-67
2022/03/09 04:05:21;;;;;;;69.88;10.23;;;;;;;;;;5072945;28;20256;-68
2022/03/09 04:07:50;;;;;;;75.63;9.75;;;;;;;;;;5072288;28;20201;-69
2022/03/09 04:10:17;;;;;;;72.10;11.57;;;;;;;;;;5072943;28;20212;-68
2022/03/09 04:12:44;;;;;;;68.13;9.75;;;;;;;;;;5072635;28;20208;-68
2022/03/09 04:15:11;;;;;;;68.07;9.57;;;;;;;;;;5072523;28;20220;-68
2022/03/09 04:17:42;;;;;;;73.75;11.15;;;;;;;;;;5071684;28;20716;-67
2022/03/09 04:20:09;;;;;;;67.05;10.07;;;;;;;;;;5072550;28;20201;-68
2022/03/09 04:22:36;;;;;;;70.20;10.55;;;;;;;;;;5072219;28;20692;-67
2022/03/09 04:25:05;;;;;;;68.60;9.98;;;;;;;;;;5072356;28;20224;-68
2022/03/09 04:27:32;;;;;;;69.75;11.07;;;;;;;;;;5071762;28;20208;-67
2022/03/09 04:29:59;;;;;;;72.30;10.40;;;;;;;;;;5071949;28;20677;-67
2022/03/09 04:32:27;;;;;;;70.35;9.95;;;;;;;;;;5072253;28;20216;-68
2022/03/09 04:34:54;;;;;;;68.57;10.60;;;;;;;;;;5072304;28;20292;-68
2022/03/09 04:37:22;;;;;;;73.90;10.57;;;;;;;;;;5071370;28;20296;-68
2022/03/09 04:39:49;;;;;;;70.63;10.60;;;;;;;;;;5072573;28;20262;-67
2022/03/09 04:42:18;;;;;;;70.55;10.88;;;;;;;;;;5071771;28;20215;-68
2022/03/09 04:44:45;;;;;;;70.47;10.88;;;;;;;;;;5072047;28;20709;-67
2022/03/09 04:47:12;;;;;;;73.65;12.43;;;;;;;;;;5071447;28;20215;-68
2022/03/09 04:49:39;;;;;;;73.35;13.30;;;;;;;;;;5072045;28;20204;-67
2022/03/09 04:52:06;;;;;;;73.28;12.70;;;;;;;;;;5072072;28;20554;-67
2022/03/09 04:54:34;;;;;;;74.50;13.35;;;;;;;;;;5071900;28;20211;-69
2022/03/09 04:57:01;;;;;;;70.82;11.48;;;;;;;;;;5071668;28;20239;-68
2022/03/09 04:59:29;;;;;;;74.40;11.00;;;;;;;;;;5071377;28;20261;-68
2022/03/09 05:01:56;;;;;;;75.45;11.43;;;;;;;;;;5071773;28;20299;-68
2022/03/09 05:04:23;;;;;;;72.82;9.98;;;;;;;;;;5071791;28;20231;-68
2022/03/09 05:06:51;;;;;;;68.93;10.65;;;;;;;;;;5071930;28;20259;-68
2022/03/09 05:09:18;;;;;;;66.95;10.75;;;;;;;;;;5071011;28;20300;-68
2022/03/09 05:11:45;;;;;;;73.50;9.68;;;;;;;;;;5070812;28;20204;-68
2022/03/09 05:14:12;;;;;;;71.15;10.07;;;;;;;;;;5071458;28;20228;-69
2022/03/09 05:16:40;;;;;;;68.82;10.70;;;;;;;;;;5072082;28;20227;-68
2022/03/09 05:19:08;;;;;;;71.30;10.40;;;;;;;;;;5071082;28;20296;-68
2022/03/09 05:21:35;;;;;;;69.60;10.00;;;;;;;;;;5072109;28;20205;-68
2022/03/09 05:24:02;;;;;;;70.28;10.00;;;;;;;;;;5071683;28;20300;-68
2022/03/09 05:26:29;;;;;;;69.72;10.60;;;;;;;;;;5071837;28;20229;-68
2022/03/09 05:28:57;;;;;;;67.30;10.32;;;;;;;;;;5070926;28;20219;-68
2022/03/09 05:31:24;;;;;;;69.90;10.32;;;;;;;;;;5071562;28;20222;-68
2022/03/09 05:33:53;;;;;;;68.65;10.38;;;;;;;;;;5071531;28;20205;-68
2022/03/09 05:36:20;;;;;;;71.82;11.00;;;;;;;;;;5071671;28;20228;-68
2022/03/09 05:38:47;;;;;;;73.70;10.07;;;;;;;;;;5070740;28;20205;-68
2022/03/09 05:41:14;;;;;;;68.97;9.55;;;;;;;;;;5071622;28;20355;-69
2022/03/09 05:43:41;;;;;;;74.10;10.70;;;;;;;;;;5071469;28;20208;-69
2022/03/09 05:46:11;;;;;;;69.35;9.25;;;;;;;;;;5071336;28;20229;-69
2022/03/09 05:48:39;;;;;;;64.43;7.68;;;;;;;;;;5070771;28;20620;-69
2022/03/09 05:51:08;;;;;;;72.45;10.85;;;;;;;;;;5071251;28;20587;-69
2022/03/09 05:53:35;;;;;;;70.30;10.00;;;;;;;;;;5071573;28;20223;-69
2022/03/09 05:56:02;;;;;;;69.25;11.20;;;;;;;;;;5071520;28;20224;-68
2022/03/09 05:58:29;;;;;;;68.35;9.77;;;;;;;;;;5070749;28;20204;-70
2022/03/09 06:00:56;;;;;;;75.55;12.18;;;;;;;;;;5071407;28;20296;-69
2022/03/09 06:03:23;;;;;;;76.15;12.15;;;;;;;;;;5071143;28;20585;-70
2022/03/09 06:05:51;;;;;;;70.00;9.35;;;;;;;;;;5071169;28;20235;-69
2022/03/09 06:08:19;;;;;;;69.93;9.73;;;;;;;;;;5070991;28;20201;-69
2022/03/09 06:10:47;;;;;;;70.18;9.77;;;;;;;;;;5070812;28;20716;-65
2022/03/09 06:13:14;;;;;;;71.53;9.32;;;;;;;;;;5071234;28;20208;-70
2022/03/09 06:15:41;;;;;;;68.22;9.95;;;;;;;;;;5071082;28;20228;-67
2022/03/09 06:18:08;;;;;;;69.80;10.05;;;;;;;;;;5070344;28;20209;-67
2022/03/09 06:20:35;;;;;;;69.53;10.57;;;;;;;;;;5071024;28;20576;-67
2022/03/09 06:23:03;;;;;;;71.18;10.65;;;;;;;;;;5071308;28;20566;-67
2022/03/09 06:25:32;;;;;;;68.25;9.93;;;;;;;;;;5074520;28;20260;-67
2022/03/09 06:27:59;;;;;;;71.72;10.77;;;;;;;;;;5073871;28;20216;-67
2022/03/09 06:30:26;;;;;;;69.03;10.23;;;;;;;;;;5075056;28;20562;-68
2022/03/09 06:32:54;;;;;;;70.68;10.50;;;;;;;;;;5074302;28;20296;-66
2022/03/09 06:35:21;;;;;;;69.00;10.40;;;;;;;;;;5074653;28;20225;-68
2022/03/09 06:37:48;;;;;;;68.85;9.57;;;;;;;;;;5073806;28;20205;-67
2022/03/09 06:40:15;;;;;;;68.60;10.38;;;;;;;;;;5074632;28;20211;-68
2022/03/09 06:42:44;;;;;;;67.28;10.00;;;;;;;;;;5074397;28;20307;-67
2022/03/09 06:45:11;;;;;;;70.60;9.98;;;;;;;;;;5073995;28;20268;-68
2022/03/09 06:47:38;;;;;;;74.60;10.00;;;;;;;;;;5073722;28;20228;-67
2022/03/09 06:50:06;;;;;;;67.78;9.60;;;;;;;;;;5074330;28;20208;-67
2022/03/09 06:52:33;;;;;;;70.18;9.93;;;;;;;;;;5074015;28;20283;-67
2022/03/09 06:55:03;;;;;;;74.13;10.90;;;;;;;;;;5074357;28;20201;-68
2022/03/09 06:57:30;;;;;;;72.80;11.88;;;;;;;;;;5073425;28;20217;-67
2022/03/09 06:59:59;;;;;;;71.18;10.32;;;;;;;;;;5073876;28;20216;-67
2022/03/09 07:02:26;;;;;;;68.72;11.55;;;;;;;;;;5074047;28;20291;-68
2022/03/09 07:04:53;;;;;;;73.05;10.25;;;;;;;;;;5073867;28;20595;-68
2022/03/09 07:07:21;;;;;;;70.70;10.00;;;;;;;;;;5073305;28;20583;-67
2022/03/09 07:09:48;;;;;;;72.03;10.65;;;;;;;;;;5073814;28;20295;-67
2022/03/09 07:12:15;;;;;;;67.85;9.50;;;;;;;;;;5073727;28;20674;-67
2022/03/09 07:14:42;;;;;;;68.05;10.35;;;;;;;;;;5073867;28;20201;-67
2022/03/09 07:17:10;;;;;;;69.30;10.10;;;;;;;;;;5073401;28;20285;-67
2022/03/09 07:19:38;;;;;;;66.85;9.73;;;;;;;;;;5073763;28;20247;-68
2022/03/09 07:22:05;;;;;;;74.90;10.45;;;;;;;;;;5074134;28;20209;-67
2022/03/09 07:24:32;;;;;;;71.32;10.10;;;;;;;;;;5073546;28;20213;-67
2022/03/09 07:26:59;;;;;;;71.35;11.68;;;;;;;;;;5073184;28;20606;-68
2022/03/09 07:29:26;;;;;;;69.13;10.13;;;;;;;;;;5072715;28;20212;-67
2022/03/09 07:31:54;;;;;;;67.72;9.88;;;;;;;;;;5073705;28;20200;-67
2022/03/09 07:34:23;;;;;;;72.82;10.57;;;;;;;;;;5073054;28;20215;-67
2022/03/09 07:36:51;;;;;;;70.90;10.15;;;;;;;;;;5072879;28;20260;-66
2022/03/09 07:39:19;;;;;;;69.32;10.48;;;;;;;;;;5072411;28;20279;-69
2022/03/09 07:41:46;;;;;;;73.10;11.25;;;;;;;;;;5073014;28;20637;-67
2022/03/09 07:44:15;;;;;;;67.57;9.25;;;;;;;;;;5072881;28;20296;-67
2022/03/09 07:46:42;;;;;;;71.25;9.68;;;;;;;;;;5072917;28;20670;-67
2022/03/09 07:49:09;;;;;;;70.53;9.70;;;;;;;;;;5072357;28;20297;-67
2022/03/09 07:51:38;;;;;;;70.20;10.45;;;;;;;;;;5072914;28;20205;-68
2022/03/09 07:54:06;;;;;;;70.35;10.90;;;;;;;;;;5072706;28;20211;-67
2022/03/09 07:56:34;;;;;;;70.68;11.30;;;;;;;;;;5073075;28;20252;-67
2022/03/09 07:59:02;;;;;;;72.20;11.27;;;;;;;;;;5072384;28;20646;-67
2022/03/09 08:01:29;;;;;;;67.68;10.77;;;;;;;;;;5072810;28;20201;-68
2022/03/09 08:03:56;;;;;;;70.43;10.35;;;;;;;;;;5072968;28;20295;-68
2022/03/09 08:06:23;;;;;;;65.95;9.98;;;;;;;;;;5072491;28;20231;-68
2022/03/09 08:08:52;;;;;;;67.57;9.32;;;;;;;;;;5072313;28;20297;-68
2022/03/09 08:11:19;;;;;;;68.50;9.35;;;;;;;;;;5072471;28;20211;-69
2022/03/09 08:13:46;;;;;;;69.72;9.90;;;;;;;;;;5082821;28;20212;-69
2022/03/09 08:16:13;;;;;;;65.85;8.38;;;;;;;;;;5091992;28;20220;-69
2022/03/09 08:18:40;;;;;;;69.75;9.98;;;;;;;;;;5090992;28;20204;-67
2022/03/09 08:21:07;;;;;;;69.68;10.07;;;;;;;;;;5091975;28;20295;-69
2022/03/09 08:23:35;;;;;;;73.55;9.57;;;;;;;;;;5091733;28;20239;-68
2022/03/09 08:26:04;;;;;;;65.80;9.52;;;;;;;;;;5091833;28;20336;-68
2022/03/09 08:28:31;;;;;;;73.22;9.05;;;;;;;;;;5090743;28;20214;-68
2022/03/09 08:30:58;;;;;;;72.00;8.70;;;;;;;;;;5091898;28;20590;-68
2022/03/09 08:33:25;;;;;;;66.47;9.25;;;;;;;;;;5091454;28;20635;-67
2022/03/09 08:35:53;;;;;;;65.72;8.48;;;;;;;;;;5091567;28;20722;-68
2022/03/09 08:38:20;;;;;;;73.10;9.50;;;;;;;;;;5090963;28;20706;-68
2022/03/09 08:40:47;;;;;;;67.22;8.90;;;;;;;;;;5091328;28;20299;-68
2022/03/09 08:43:17;;;;;;;70.55;9.25;;;;;;;;;;5091636;28;20736;-68
2022/03/09 08:45:45;;;;;;;69.18;8.88;;;;;;;;;;5091251;28;20289;-68
2022/03/09 08:48:12;;;;;;;65.85;8.52;;;;;;;;;;5090243;28;20585;-70
2022/03/09 08:50:40;;;;;;;66.10;8.85;;;;;;;;;;5090848;28;20294;-68
2022/03/09 08:53:07;;;;;;;66.47;9.30;;;;;;;;;;5091981;28;20204;-68
2022/03/09 08:55:34;;;;;;;67.88;8.55;;;;;;;;;;5092011;28;20279;-68
2022/03/09 08:58:01;;;;;;;67.13;9.52;;;;;;;;;;5091218;28;20208;-68
2022/03/09 09:00:30;;;;;;;68.22;9.60;;;;;;;;;;5091625;28;20690;-68
2022/03/09 09:02:57;;;;;;;73.78;9.93;;;;;;;;;;5091754;28;20226;-69
2022/03/09 09:05:24;;;;;;;64.78;8.55;;;;;;;;;;5091732;28;20324;-68
2022/03/09 09:07:51;;;;;;;68.28;9.93;;;;;;;;;;5090460;28;20672;-68
2022/03/09 09:10:18;;;;;;;68.57;8.75;;;;;;;;;;5091238;28;20204;-69
2022/03/09 09:12:46;;;;;;;70.90;11.02;;;;;;;;;;5091190;28;20608;-68
2022/03/09 09:15:13;;;;;;;70.20;10.52;;;;;;;;;;5091680;28;20224;-68
2022/03/09 09:17:42;;;;;;;68.00;9.93;;;;;;;;;;5090874;28;20197;-70
2022/03/09 09:20:10;;;;;;;69.88;10.48;;;;;;;;;;5091681;28;20299;-68
2022/03/09 09:22:42;;;;;;;68.63;9.73;;;;;;;;;;5091497;28;20236;-69
2022/03/09 09:25:10;;;;;;;78.68;11.55;;;;;;;;;;5091341;28;20224;-68
2022/03/09 09:27:37;;;;;;;73.43;11.95;;;;;;;;;;5090346;28;20263;-69
2022/03/09 09:30:04;;;;;;;72.90;11.75;;;;;;;;;;5090637;28;21589;-68
2022/03/09 09:32:32;;;;;;;72.30;11.25;;;;;;;;;;5091231;28;20668;-68
2022/03/09 09:35:00;;;;;;;69.05;10.95;;;;;;;;;;5091356;28;20201;-68
2022/03/09 09:37:27;;;;;;;71.53;10.68;;;;;;;;;;5090716;28;20208;-68
2022/03/09 09:39:54;;;;;;;69.07;11.05;;;;;;;;;;5091346;28;20210;-68
2022/03/09 09:42:28;;;;;;;70.90;11.52;;;;;;;;;;5090178;28;20223;-68
2022/03/09 09:44:55;;;;;;;69.68;11.30;;;;;;;;;;5087683;28;20269;-70
2022/03/09 09:47:23;;;;;;;71.63;10.43;;;;;;;;;;5090277;28;20224;-69
2022/03/09 09:49:52;;;;;;;76.65;10.30;;;;;;;;;;5090961;28;20205;-69
2022/03/09 09:52:21;;;;;;;71.50;11.90;;;;;;;;;;5090882;28;20671;-68
2022/03/09 09:54:49;;;;;;;73.82;11.52;;;;;;;;;;5091876;28;20205;-70
2022/03/09 09:57:17;;;;;;;72.25;9.57;;;;;;;;;;5090692;28;20234;-67
2022/03/09 09:59:44;;;;;;;70.53;11.52;;;;;;;;;;5094468;28;20307;-69
2022/03/09 10:02:11;;;;;;;74.97;11.57;;;;;;;;;;5095446;28;20212;-67
2022/03/09 10:04:39;;;;;;;71.43;10.93;;;;;;;;;;5095427;28;20651;-67
2022/03/09 10:07:07;;;;;;;69.00;10.70;;;;;;;;;;5094000;28;20496;-70
2022/03/09 10:09:36;;;;;;;72.60;11.70;;;;;;;;;;5094073;28;20454;-68
2022/03/09 10:12:06;;;;;;;69.70;11.87;;;;;;;;;;5094728;28;20703;-67
2022/03/09 10:14:47;;;;;;;72.63;10.73;;;;;;;;;;5095166;28;20448;-67
2022/03/09 10:17:16;;;;;;;71.97;10.67;;;;;;;;;;5089531;28;20477;-67
2022/03/09 10:19:43;;;;;;;67.30;11.20;;;;;;;;;;5094866;28;20454;-68
2022/03/09 10:22:24;;;;;;;68.10;10.20;;;;;;;;;;5094930;28;20446;-69
2022/03/09 10:24:53;;;;;;;67.40;10.17;;;;;;;;;;5094695;28;20841;-68
2022/03/09 10:27:33;;;;;;;67.17;10.60;;;;;;;;;;5093520;28;20485;-70
2022/03/09 10:30:00;;;;;;;68.60;10.50;;;;;;;;;;5094159;28;20452;-69
2022/03/09 10:32:42;;;;;;;66.60;11.27;;;;;;;;;;5094015;28;21024;-68
2022/03/09 10:35:09;;;;;;;69.23;11.20;;;;;;;;;;5094607;28;20545;-67
2022/03/09 10:37:39;;;;;;;67.20;10.33;;;;;;;;;;5093879;28;20545;-69
2022/03/09 10:40:11;;;;;;;68.87;10.47;;;;;;;;;;5094702;28;20444;-67
2022/03/09 10:42:38;;;;;;;67.77;10.93;;;;;;;;;;5094264;28;20942;-67
2022/03/09 10:45:07;;;;;;;68.30;11.60;;;;;;;;;;5094034;28;20453;-68
2022/03/09 10:47:35;;;;;;;67.17;11.20;;;;;;;;;;5092291;28;20484;-68
2022/03/09 10:50:13;;;;;;;67.17;11.20;;;;;;;;;;5089586;28;20450;-67
2022/03/09 10:52:46;;;;;;;67.40;11.20;;;;;;;;;;5093369;28;20458;-67
2022/03/09 10:55:31;;;;;;;66.30;10.40;;;;;;;;;;5093921;28;20470;-67
2022/03/09 10:58:09;;;;;;;67.10;11.07;;;;;;;;;;5088737;28;20501;-68
2022/03/09 11:00:37;;;;;;;69.60;11.17;;;;;;;;;;5074135;28;20478;-69
2022/03/09 11:03:08;;;;;;;67.97;12.10;;;;;;;;;;5073786;28;20869;-69
2022/03/09 11:05:36;;;;;;;67.77;10.73;;;;;;;;;;5073647;28;20553;-69
2022/03/09 11:08:03;;;;;;;68.77;11.43;;;;;;;;;;5072520;28;20503;-68
2022/03/09 11:10:32;;;;;;;65.30;10.50;;;;;;;;;;5071623;28;20449;-69
2022/03/09 11:12:59;;;;;;;65.87;9.93;;;;;;;;;;5073174;28;20448;-68
2022/03/09 11:15:26;;;;;;;67.83;12.00;;;;;;;;;;5073549;28;20467;-68
2022/03/09 11:17:54;;;;;;;65.30;10.47;;;;;;;;;;5072849;28;20449;-68
2022/03/09 11:20:21;;;;;;;65.27;10.20;;;;;;;;;;5072070;28;20461;-68
2022/03/09 11:22:48;;;;;;;66.40;10.50;;;;;;;;;;5093562;28;20450;-68
2022/03/09 11:25:16;;;;;;;68.43;11.57;;;;;;;;;;5093664;28;20475;-68
2022/03/09 11:27:45;;;;;;;67.83;11.13;;;;;;;;;;5092313;28;20575;-67
2022/03/09 11:30:22;;;;;;;67.47;11.30;;;;;;;;;;5093062;28;20449;-68
2022/03/09 11:32:50;;;;;;;69.03;10.43;;;;;;;;;;5092683;28;20461;-68
2022/03/09 11:35:34;;;;;;;68.13;11.10;;;;;;;;;;5093499;28;20467;-68
2022/03/09 11:38:01;;;;;;;73.00;12.10;;;;;;;;;;5092601;28;20445;-69
2022/03/09 11:40:28;;;;;;;66.30;11.00;;;;;;;;;;5093241;28;20448;-70
2022/03/09 11:42:57;;;;;;;66.40;10.50;;;;;;;;;;5093147;28;20538;-68
2022/03/09 11:45:31;;;;;;;67.10;11.73;;;;;;;;;;5092942;28;20462;-68
2022/03/09 11:48:00;;;;;;;65.97;10.50;;;;;;;;;;5092112;28;20799;-69
2022/03/09 11:50:28;;;;;;;68.37;12.00;;;;;;;;;;5092390;28;20446;-69
2022/03/09 11:52:58;;;;;;;67.60;11.50;;;;;;;;;;5088277;28;20450;-69
2022/03/09 11:55:25;;;;;;;70.33;11.67;;;;;;;;;;5092942;28;20468;-69
2022/03/09 11:58:04;;;;;;;67.37;11.33;;;;;;;;;;5092022;28;20482;-68
2022/03/09 12:00:31;;;;;;;67.00;11.20;;;;;;;;;;5085054;28;20463;-69
2022/03/09 12:02:59;;;;;;;66.90;11.80;;;;;;;;;;5072596;28;20443;-68
2022/03/09 12:05:40;;;;;;;66.87;11.10;;;;;;;;;;5072427;28;20467;-68
2022/03/09 12:08:09;;;;;;;67.00;12.00;;;;;;;;;;5071418;28;20470;-69
2022/03/09 12:10:54;;;;;;;70.37;12.27;;;;;;;;;;5072358;28;20447;-68
2022/03/09 12:13:26;;;;;;;65.83;10.57;;;;;;;;;;5071613;28;20453;-69
2022/03/09 12:16:12;;;;;;;66.90;11.17;;;;;;;;;;5072841;28;20477;-69
2022/03/09 12:18:40;;;;;;;67.60;12.00;;;;;;;;;;5071506;28;20436;-68
2022/03/09 12:21:08;;;;;;;66.97;12.00;;;;;;;;;;5071999;28;20534;-68
2022/03/09 12:23:36;;;;;;;66.17;10.93;;;;;;;;;;5078638;28;20453;-68
2022/03/09 12:26:03;;;;;;;67.30;11.10;;;;;;;;;;5092376;28;20469;-68
2022/03/09 12:28:47;;;;;;;65.70;10.50;;;;;;;;;;5091324;28;20541;-69
2022/03/09 12:31:23;;;;;;;66.70;10.90;;;;;;;;;;5091753;28;20446;-68
2022/03/09 12:33:55;;;;;;;66.27;11.43;;;;;;;;;;5091694;28;20865;-69
2022/03/09 12:36:23;;;;;;;65.10;10.63;;;;;;;;;;5092258;28;20810;-68
2022/03/09 12:38:52;;;;;;;66.63;10.60;;;;;;;;;;5091645;28;20511;-69
2022/03/09 12:41:25;;;;;;;65.50;10.50;;;;;;;;;;5092057;28;20446;-68
2022/03/09 12:43:55;;;;;;;67.50;11.97;;;;;;;;;;5091531;28;20449;-69
2022/03/09 12:46:22;;;;;;;67.37;11.97;;;;;;;;;;5091773;28;20544;-69
2022/03/09 12:48:49;;;;;;;65.70;10.43;;;;;;;;;;5090712;28;20442;-68
2022/03/09 12:51:16;;;;;;;67.50;12.53;;;;;;;;;;5091736;28;20537;-69
2022/03/09 12:53:44;;;;;;;67.00;11.80;;;;;;;;;;5086489;28;20533;-69
2022/03/09 12:56:14;;;;;;;65.90;11.07;;;;;;;;;;5090996;28;20478;-69
2022/03/09 12:58:42;;;;;;;67.67;11.77;;;;;;;;;;5090837;28;20478;-69
2022/03/09 13:01:12;;;;;;;67.10;11.03;;;;;;;;;;5091381;28;20833;-69
2022/03/09 13:03:40;;;;;;;67.07;11.90;;;;;;;;;;5091327;28;20450;-70
2022/03/09 13:06:07;;;;;;;66.00;11.23;;;;;;;;;;5091460;28;21000;-68
2022/03/09 13:08:35;;;;;;;65.87;11.90;;;;;;;;;;5090723;28;20533;-69
2022/03/09 13:11:04;;;;;;;66.10;12.33;;;;;;;;;;5091131;28;20460;-69
2022/03/09 13:13:31;;;;;;;68.33;12.73;;;;;;;;;;5091097;28;20480;-70
2022/03/09 13:16:00;;;;;;;66.77;11.37;;;;;;;;;;5091069;28;20493;-68
2022/03/09 13:18:29;;;;;;;67.67;11.93;;;;;;;;;;5091085;28;20482;-70
2022/03/09 13:20:57;;;;;;;68.30;11.50;;;;;;;;;;5091481;28;20446;-68
2022/03/09 13:23:25;;;;;;;68.97;11.60;;;;;;;;;;5091478;28;20468;-69
2022/03/09 13:25:53;;;;;;;69.97;11.20;;;;;;;;;;5086882;28;20991;-68
2022/03/09 13:28:27;;;;;;;68.47;12.57;;;;;;;;;;5090992;28;20828;-68
2022/03/09 13:30:55;;;;;;;68.07;11.40;;;;;;;;;;5090732;28;20450;-69
2022/03/09 13:33:23;;;;;;;67.60;11.87;;;;;;;;;;5091903;28;20450;-68
2022/03/09 13:35:52;;;;;;;72.30;13.37;;;;;;;;;;5094741;28;20474;-68
2022/03/09 13:38:24;;;;;;;70.53;12.17;;;;;;;;;;5094559;28;20484;-69
2022/03/09 13:40:51;;;;;;;68.53;10.97;;;;;;;;;;5095085;28;20533;-68
2022/03/09 13:43:18;;;;;;;68.77;11.80;;;;;;;;;;5095294;28;20451;-68
2022/03/09 13:45:46;;;;;;;67.00;11.70;;;;;;;;;;5095488;28;20473;-68
2022/03/09 13:48:23;;;;;;;70.20;11.63;;;;;;;;;;5094451;28;20822;-68
2022/03/09 13:51:00;;;;;;;68.10;12.27;;;;;;;;;;5095018;28;20454;-68
2022/03/09 13:53:32;;;;;;;70.20;12.17;;;;;;;;;;5094963;28;20817;-68
2022/03/09 13:55:59;;;;;;;71.67;13.33;;;;;;;;;;5091869;28;20473;-69
2022/03/09 13:58:27;;;;;;;70.90;13.93;;;;;;;;;;5093291;28;20480;-68
2022/03/09 14:01:04;;;;;;;69.67;12.90;;;;;;;;;;5094360;28;20980;-68
2022/03/09 14:03:39;;;;;;;70.00;12.90;;;;;;;;;;5095067;28;20933;-68
2022/03/09 14:06:14;;;;;;;68.60;12.00;;;;;;;;;;5094939;28;20992;-68
2022/03/09 14:08:41;;;;;;;69.50;12.47;;;;;;;;;;5094253;28;20443;-68
2022/03/09 14:11:13;;;;;;;69.50;12.50;;;;;;;;;;5094755;28;20639;-70
2022/03/09 14:14:00;;;;;;;69.53;13.07;;;;;;;;;;5094252;28;20441;-70
2022/03/09 14:16:28;;;;;;;70.57;12.90;;;;;;;;;;5094107;28;20525;-68
2022/03/09 14:18:56;;;;;;;69.03;12.83;;;;;;;;;;5094181;28;20940;-67
2022/03/09 14:21:25;;;;;;;70.87;12.77;;;;;;;;;;5094780;28;20446;-68
2022/03/09 14:23:57;;;;;;;68.77;11.43;;;;;;;;;;5094858;28;20454;-68
2022/03/09 14:26:24;;;;;;;69.70;11.50;;;;;;;;;;5093842;28;20466;-67